Aurora, Illinois
Current Conditions -  °F | °C
As of 2:52 AM on Friday 24 Oct 2014 (Local Time) from KARR Reporting Station
Broken Clouds Broken Clouds  
Wind Chill: 10°   Ceiling: 2500
Heat Index: 10°   Visibility: 7mi
Dew Point:   Wind: 0mph
Humidity: 80%   Direction: NA
Pressure: 30.05"   Gusts: NA
Location:  41.76°N, 88.31°W
Report Text: KARR 240752Z AUTO 00000KT 7SM BKN025 10/07 A3005 RMK AO2 SLP176 T01000067
Loading
Personal Weather Stations






























Interactive Weather Map
Tropical Storm Tracking
New forecast layout! Learn more

10-Day Weather Forecast

Advertisements
Track Severe Weather on mobile